createdAt,value
2022-10-30T00:01:02.601Z,98155.22
2022-10-30T00:03:32.609Z,98156.19
2022-10-30T00:06:00.882Z,98161.50
2022-10-30T00:08:29.189Z,98149.50
2022-10-30T00:10:57.434Z,98154.66
2022-10-30T00:13:25.686Z,98153.97
2022-10-30T00:15:55.112Z,98163.00
2022-10-30T00:18:23.402Z,98150.97
2022-10-30T00:20:53.092Z,98152.63
2022-10-30T00:23:21.443Z,98151.94
2022-10-30T00:25:49.702Z,98155.78
2022-10-30T00:28:17.926Z,98161.25
2022-10-30T00:30:46.169Z,98150.75
2022-10-30T00:33:14.451Z,98152.56
2022-10-30T00:35:49.968Z,98146.56
2022-10-30T00:38:19.609Z,98147.56
2022-10-30T00:40:47.862Z,98149.41
2022-10-30T00:43:35.722Z,98155.84
2022-10-30T00:46:16.710Z,98151.53
2022-10-30T00:48:49.602Z,98148.88
2022-10-30T00:51:18.751Z,98147.19
2022-10-30T00:53:49.293Z,98143.69
2022-10-30T00:56:21.975Z,98146.34
2022-10-30T00:58:55.273Z,98149.19
2022-10-30T01:01:27.807Z,98151.19
2022-10-30T01:03:59.549Z,98137.16
2022-10-30T01:06:29.278Z,98141.66
2022-10-30T01:09:00.284Z,98143.50
2022-10-30T01:11:28.832Z,98146.31
2022-10-30T01:14:01.120Z,98142.13
2022-10-30T01:16:57.272Z,98140.44
2022-10-30T01:19:33.947Z,98140.63
2022-10-30T01:22:29.085Z,98136.44
2022-10-30T01:25:12.259Z,98136.75
2022-10-30T01:27:52.776Z,98141.22
2022-10-30T01:30:37.376Z,98136.06
2022-10-30T01:33:23.995Z,98129.38
2022-10-30T01:36:03.090Z,98139.03
2022-10-30T01:38:37.476Z,98138.34
2022-10-30T01:41:07.200Z,98144.66
2022-10-30T01:43:36.599Z,98136.69
2022-10-30T01:46:33.016Z,98144.13
2022-10-30T01:49:18.572Z,98139.97
2022-10-30T01:52:02.400Z,98147.25
2022-10-30T01:54:40.149Z,98137.44
2022-10-30T01:57:19.447Z,98135.09
2022-10-30T01:59:54.468Z,98129.03
2022-10-30T02:02:23.854Z,98125.72
2022-10-30T02:04:52.836Z,98129.19
2022-10-30T02:07:21.280Z,98120.38
2022-10-30T02:09:52.270Z,98123.19
2022-10-30T02:12:23.341Z,98119.84
2022-10-30T02:14:55.827Z,98117.50
2022-10-30T02:17:24.669Z,98121.00
2022-10-30T02:19:52.896Z,98115.81
2022-10-30T02:22:22.909Z,98121.31
2022-10-30T02:24:51.216Z,98117.94
2022-10-30T02:27:19.501Z,98115.28
2022-10-30T02:29:49.283Z,98113.78
2022-10-30T02:32:17.575Z,98120.09
2022-10-30T02:34:45.818Z,98120.09
2022-10-30T02:37:14.062Z,98114.94
2022-10-30T02:39:43.707Z,98114.09
2022-10-30T02:42:12.132Z,98108.75
2022-10-30T02:44:40.362Z,98109.75
2022-10-30T02:47:08.636Z,98109.06
2022-10-30T02:49:36.972Z,98111.56
2022-10-30T02:52:07.810Z,98108.22
2022-10-30T02:54:36.104Z,98108.22
2022-10-30T02:57:05.939Z,98100.38
2022-10-30T02:59:34.148Z,98102.22
2022-10-30T03:02:02.487Z,98100.38
2022-10-30T03:04:30.782Z,98105.72
2022-10-30T03:06:59.047Z,98106.72
2022-10-30T03:09:27.287Z,98107.56
2022-10-30T03:11:55.547Z,98103.19
2022-10-30T03:14:25.192Z,98101.53
2022-10-30T03:16:53.592Z,98098.88
2022-10-30T03:19:22.176Z,98098.88
2022-10-30T03:21:50.422Z,98098.03
2022-10-30T03:24:18.652Z,98105.19
2022-10-30T03:26:47.908Z,98105.34
2022-10-30T03:29:16.116Z,98114.84
2022-10-30T03:31:45.754Z,98108.81
2022-10-30T03:34:13.952Z,98116.97
2022-10-30T03:36:42.160Z,98113.34
2022-10-30T03:39:10.650Z,98116.97
2022-10-30T03:41:38.884Z,98110.97
2022-10-30T03:44:07.138Z,98116.47
2022-10-30T03:46:35.888Z,98111.28
2022-10-30T03:49:05.477Z,98108.94
2022-10-30T03:51:33.742Z,98109.91
2022-10-30T03:54:01.951Z,98101.91
2022-10-30T03:56:30.217Z,98103.91
2022-10-30T03:58:58.432Z,98105.72
2022-10-30T04:01:26.830Z,98097.88
2022-10-30T04:03:55.278Z,98100.84
2022-10-30T04:06:24.825Z,98093.03
2022-10-30T04:08:55.514Z,98089.66
2022-10-30T04:11:23.813Z,98091.81
2022-10-30T04:13:52.040Z,98090.13
2022-10-30T04:16:20.252Z,98095.44
2022-10-30T04:18:48.462Z,98103.56
2022-10-30T04:21:16.661Z,98101.09
2022-10-30T04:23:46.237Z,98098.75
2022-10-30T04:26:15.135Z,98098.03
2022-10-30T04:28:43.339Z,98096.38
2022-10-30T04:31:11.600Z,98096.69
2022-10-30T04:33:39.827Z,98092.31
2022-10-30T04:36:09.496Z,98093.47
2022-10-30T04:38:37.760Z,98095.44
2022-10-30T04:41:07.422Z,98100.09
2022-10-30T04:43:35.678Z,98096.88
2022-10-30T04:46:06.845Z,98098.03
2022-10-30T04:48:36.242Z,98094.69
2022-10-30T04:51:04.647Z,98101.97
2022-10-30T04:53:32.887Z,98096.94
2022-10-30T04:56:01.089Z,98092.63
2022-10-30T04:58:30.768Z,98092.91
2022-10-30T05:01:03.339Z,98091.41
2022-10-30T05:03:32.182Z,98078.25
2022-10-30T05:06:04.057Z,98080.22
2022-10-30T05:08:32.781Z,98079.50
2022-10-30T05:11:01.399Z,98078.84
2022-10-30T05:13:30.985Z,98080.00
2022-10-30T05:15:59.188Z,98079.41
2022-10-30T05:18:27.425Z,98072.44
2022-10-30T05:20:55.640Z,98074.38
2022-10-30T05:23:24.031Z,98072.88
2022-10-30T05:25:52.320Z,98075.69
2022-10-30T05:28:20.601Z,98074.97
2022-10-30T05:30:54.729Z,98079.59
2022-10-30T05:33:23.673Z,98083.25
2022-10-30T05:35:52.025Z,98079.91
2022-10-30T05:38:20.263Z,98089.84
2022-10-30T05:40:48.532Z,98079.53
2022-10-30T05:43:16.741Z,98078.66
2022-10-30T05:45:45.017Z,98083.28
2022-10-30T05:48:14.577Z,98079.13
2022-10-30T05:50:43.014Z,98074.94
2022-10-30T05:53:11.783Z,98075.09
2022-10-30T05:55:40.016Z,98076.91
2022-10-30T05:58:08.622Z,98080.69
2022-10-30T06:00:39.222Z,98082.66
2022-10-30T06:03:11.195Z,98079.28
2022-10-30T06:05:41.317Z,98074.28
2022-10-30T06:08:09.800Z,98084.91
2022-10-30T06:10:38.138Z,98078.06
2022-10-30T06:13:08.305Z,98072.38
2022-10-30T06:15:36.510Z,98081.16
2022-10-30T06:18:05.067Z,98082.00
2022-10-30T06:20:33.686Z,98079.50
2022-10-30T06:23:06.126Z,98078.66
2022-10-30T06:25:40.807Z,98080.50
2022-10-30T06:28:10.795Z,98086.63
2022-10-30T06:30:39.054Z,98086.63
2022-10-30T06:33:08.223Z,98094.75
2022-10-30T06:35:36.530Z,98098.09
2022-10-30T06:38:06.095Z,98095.44
2022-10-30T06:40:34.335Z,98095.28
2022-10-30T06:43:02.956Z,98090.66
2022-10-30T06:45:31.361Z,98092.88
2022-10-30T06:48:01.766Z,98086.59
2022-10-30T06:50:30.572Z,98085.47
2022-10-30T06:52:58.806Z,98091.19
2022-10-30T06:55:28.478Z,98090.75
2022-10-30T06:57:58.279Z,98090.97
2022-10-30T07:00:26.805Z,98094.59
2022-10-30T07:03:00.257Z,98091.03
2022-10-30T07:05:29.070Z,98084.69
2022-10-30T07:07:58.748Z,98088.00
2022-10-30T07:10:28.357Z,98095.44
2022-10-30T07:12:58.826Z,98097.59
2022-10-30T07:15:28.225Z,98101.41
2022-10-30T07:17:58.659Z,98101.84
2022-10-30T07:20:29.040Z,98101.31
2022-10-30T07:22:57.409Z,98104.41
2022-10-30T07:25:27.427Z,98101.88
2022-10-30T07:27:58.290Z,98096.81
2022-10-30T07:30:28.600Z,98101.41
2022-10-30T07:33:02.432Z,98102.81
2022-10-30T07:35:31.815Z,98101.41
2022-10-30T07:38:04.436Z,98100.94
2022-10-30T07:40:34.754Z,98097.50
2022-10-30T07:43:05.302Z,98105.59
2022-10-30T07:45:34.586Z,98101.31
2022-10-30T07:48:03.276Z,98110.03
2022-10-30T07:50:31.864Z,98103.84
2022-10-30T07:53:00.314Z,98104.53
2022-10-30T07:55:28.536Z,98104.56
2022-10-30T07:57:58.468Z,98097.53
2022-10-30T08:00:27.005Z,98106.38
2022-10-30T08:02:58.638Z,98110.88
2022-10-30T08:05:28.962Z,98108.50
2022-10-30T08:07:58.903Z,98104.13
2022-10-30T08:10:27.554Z,98102.25
2022-10-30T08:12:57.155Z,98097.38
2022-10-30T08:15:25.602Z,98104.00
2022-10-30T08:17:54.467Z,98094.75
2022-10-30T08:20:24.684Z,98099.91
2022-10-30T08:22:54.931Z,98095.34
2022-10-30T08:25:26.391Z,98093.44
2022-10-30T08:27:59.396Z,98089.88
2022-10-30T08:30:30.212Z,98094.66
2022-10-30T08:33:00.056Z,98099.00
2022-10-30T08:35:28.853Z,98095.88
2022-10-30T08:37:57.853Z,98094.44
2022-10-30T08:40:27.715Z,98090.69
2022-10-30T08:42:59.044Z,98083.41
2022-10-30T08:45:30.883Z,98092.47
2022-10-30T08:48:01.327Z,98092.91
2022-10-30T08:50:30.310Z,98097.78
2022-10-30T08:53:03.152Z,98092.84
2022-10-30T08:55:32.094Z,98091.19
2022-10-30T08:58:02.263Z,98090.34
2022-10-30T09:00:30.984Z,98089.53
2022-10-30T09:02:59.636Z,98088.84
2022-10-30T09:05:28.325Z,98086.97
2022-10-30T09:08:01.500Z,98076.78
2022-10-30T09:10:31.901Z,98079.81
2022-10-30T09:13:03.263Z,98077.44
2022-10-30T09:15:31.503Z,98083.13
2022-10-30T09:18:03.007Z,98084.50
2022-10-30T09:20:32.496Z,98085.63
2022-10-30T09:23:01.182Z,98086.13
2022-10-30T09:25:29.755Z,98083.97
2022-10-30T09:27:58.121Z,98088.19
2022-10-30T09:30:28.205Z,98090.09
2022-10-30T09:32:58.226Z,98083.94
2022-10-30T09:35:27.289Z,98086.88
2022-10-30T09:37:55.860Z,98085.72
2022-10-30T09:40:33.423Z,98087.41
2022-10-30T09:43:11.249Z,98089.53
2022-10-30T09:46:17.171Z,98076.94
2022-10-30T09:49:24.273Z,98079.66
2022-10-30T09:52:27.400Z,98076.63
2022-10-30T09:55:15.222Z,98077.28
2022-10-30T09:57:55.510Z,98071.75
2022-10-30T10:00:27.587Z,98071.78
2022-10-30T10:03:19.283Z,98072.44
2022-10-30T10:05:53.303Z,98061.09
2022-10-30T10:08:28.294Z,98065.66
2022-10-30T10:11:00.893Z,98066.38
2022-10-30T10:13:37.395Z,98064.34
2022-10-30T10:16:14.975Z,98070.16
2022-10-30T10:18:48.539Z,98063.53
2022-10-30T10:21:27.335Z,98068.34
2022-10-30T10:23:58.763Z,98070.41
2022-10-30T10:26:33.290Z,98065.41
2022-10-30T10:29:35.387Z,98062.25
2022-10-30T10:32:32.361Z,98062.25
2022-10-30T10:35:23.793Z,98062.81
2022-10-30T10:38:01.046Z,98057.38
2022-10-30T10:40:43.280Z,98057.28
2022-10-30T10:43:26.034Z,98049.13
2022-10-30T10:46:04.748Z,98056.16
2022-10-30T10:49:04.336Z,98047.94
2022-10-30T10:51:39.702Z,98045.78
2022-10-30T10:54:15.531Z,98050.75
2022-10-30T10:56:48.793Z,98040.03
2022-10-30T10:59:21.527Z,98044.13
2022-10-30T11:01:57.553Z,98037.38
2022-10-30T11:04:33.823Z,98035.88
2022-10-30T11:07:16.920Z,98030.97
2022-10-30T11:09:45.892Z,98031.56
2022-10-30T11:12:14.149Z,98020.19
2022-10-30T11:14:42.861Z,98026.16
2022-10-30T11:17:20.784Z,98021.09
2022-10-30T11:19:52.946Z,98020.19
2022-10-30T11:22:30.031Z,98022.47
2022-10-30T11:25:10.925Z,98025.56
2022-10-30T11:27:39.381Z,98022.44
2022-10-30T11:30:19.999Z,98018.19
2022-10-30T11:32:48.352Z,98011.25
2022-10-30T11:35:19.192Z,98015.44
2022-10-30T11:37:51.396Z,98011.03
2022-10-30T11:40:23.068Z,98013.16
2022-10-30T11:42:58.097Z,98010.69
2022-10-30T11:45:29.667Z,98010.06
2022-10-30T11:48:02.614Z,98005.94
2022-10-30T11:50:33.728Z,98010.31
2022-10-30T11:53:12.259Z,98013.94
2022-10-30T11:55:43.156Z,98013.81
2022-10-30T11:58:27.233Z,98007.41
2022-10-30T12:01:08.294Z,98006.19
2022-10-30T12:03:39.132Z,98012.91
2022-10-30T12:06:15.089Z,98003.78
2022-10-30T12:09:01.241Z,98000.25
2022-10-30T12:11:31.800Z,97996.91
2022-10-30T12:14:00.691Z,97998.81
2022-10-30T12:16:29.722Z,97990.47
2022-10-30T12:19:04.110Z,97994.81
2022-10-30T12:21:38.135Z,97985.63
2022-10-30T12:24:18.955Z,97987.31
2022-10-30T12:26:51.194Z,97988.50
2022-10-30T12:29:24.315Z,97978.41
2022-10-30T12:31:59.435Z,97977.53
2022-10-30T12:34:43.285Z,97972.38
2022-10-30T12:37:18.555Z,97970.47
2022-10-30T12:39:57.859Z,97971.59
2022-10-30T12:42:27.227Z,97969.41
2022-10-30T12:45:09.020Z,97968.03
2022-10-30T12:47:44.773Z,97977.03
2022-10-30T12:50:21.873Z,97964.56
2022-10-30T12:52:58.685Z,97963.22
2022-10-30T12:55:35.246Z,97970.22
2022-10-30T12:58:12.144Z,97963.03
2022-10-30T13:00:47.237Z,97967.16
2022-10-30T13:03:27.624Z,97964.19
2022-10-30T13:05:59.290Z,97957.38
2022-10-30T13:08:34.179Z,97953.22
2022-10-30T13:11:12.702Z,97957.44
2022-10-30T13:13:46.497Z,97958.16
2022-10-30T13:16:18.859Z,97950.94
2022-10-30T13:18:47.242Z,97955.59
2022-10-30T13:21:23.783Z,97955.34
2022-10-30T13:23:57.175Z,97954.00
2022-10-30T13:26:38.228Z,97943.94
2022-10-30T13:29:20.451Z,97949.69
2022-10-30T13:32:14.484Z,97949.59
2022-10-30T13:34:53.776Z,97948.44
2022-10-30T13:37:30.349Z,97947.09
2022-10-30T13:40:14.763Z,97943.53
2022-10-30T13:42:59.658Z,97946.53
2022-10-30T13:46:11.769Z,97951.03
2022-10-30T13:48:59.748Z,97941.53
2022-10-30T13:51:38.730Z,97945.56
2022-10-30T13:54:18.530Z,97942.09
2022-10-30T13:56:49.479Z,97941.34
2022-10-30T13:59:48.138Z,97937.69
2022-10-30T14:02:30.235Z,97945.88
2022-10-30T14:05:05.721Z,97944.88
2022-10-30T14:07:42.943Z,97937.88
2022-10-30T14:10:17.251Z,97945.44
2022-10-30T14:12:54.032Z,97940.47
2022-10-30T14:15:33.910Z,97946.72
2022-10-30T14:18:46.529Z,97944.28
2022-10-30T14:21:41.152Z,97953.47
2022-10-30T14:24:16.384Z,97948.09
2022-10-30T14:26:52.886Z,97947.94
2022-10-30T14:29:48.451Z,97941.97
2022-10-30T14:32:50.004Z,97943.66
2022-10-30T14:35:40.469Z,97942.03
2022-10-30T14:38:28.896Z,97939.38
2022-10-30T14:41:45.958Z,97938.16
2022-10-30T14:44:51.216Z,97938.00
2022-10-30T14:47:40.409Z,97946.34
2022-10-30T14:50:23.675Z,97944.06
2022-10-30T14:53:11.628Z,97950.31
2022-10-30T14:55:54.899Z,97946.81
2022-10-30T14:58:26.964Z,97941.22
2022-10-30T15:01:27.186Z,97942.50
2022-10-30T15:04:15.688Z,97941.69
2022-10-30T15:07:06.967Z,97933.81
2022-10-30T15:09:48.630Z,97938.16
2022-10-30T15:12:51.302Z,97943.16
2022-10-30T15:15:20.675Z,97935.69
2022-10-30T15:17:52.019Z,97940.06
2022-10-30T15:20:26.592Z,97940.06
2022-10-30T15:22:58.986Z,97939.66
2022-10-30T15:25:34.826Z,97933.44
2022-10-30T15:28:03.579Z,97941.31
2022-10-30T15:30:32.006Z,97939.25
2022-10-30T15:33:00.772Z,97936.53
2022-10-30T15:35:31.313Z,97938.00
2022-10-30T15:38:02.309Z,97941.50
2022-10-30T15:40:31.896Z,97937.53
2022-10-30T15:43:02.908Z,97946.44
2022-10-30T15:45:35.643Z,97948.09
2022-10-30T15:48:09.639Z,97941.66
2022-10-30T15:50:45.070Z,97948.50
2022-10-30T15:53:20.932Z,97942.91
2022-10-30T15:55:50.651Z,97946.19
2022-10-30T15:58:23.953Z,97940.78
2022-10-30T16:01:00.301Z,97954.88
2022-10-30T16:03:29.292Z,97944.69
2022-10-30T16:06:18.924Z,97951.13
2022-10-30T16:08:49.000Z,97948.19
2022-10-30T16:11:17.792Z,97949.81
2022-10-30T16:13:46.148Z,97948.94
2022-10-30T16:16:21.814Z,97949.75
2022-10-30T16:18:50.588Z,97943.09
2022-10-30T16:21:24.676Z,97946.59
2022-10-30T16:23:56.032Z,97943.66
2022-10-30T16:26:32.645Z,97950.88
2022-10-30T16:29:04.109Z,97942.59
2022-10-30T16:31:37.252Z,97939.66
2022-10-30T16:34:12.341Z,97944.00
2022-10-30T16:36:43.113Z,97949.31
2022-10-30T16:39:16.756Z,97949.06
2022-10-30T16:41:45.623Z,97946.16
2022-10-30T16:44:21.275Z,97946.28
2022-10-30T16:46:52.653Z,97945.22
2022-10-30T16:49:24.311Z,97943.09
2022-10-30T16:51:59.539Z,97944.09
2022-10-30T16:54:34.390Z,97938.66
2022-10-30T16:57:05.182Z,97947.50
2022-10-30T16:59:37.274Z,97954.69
2022-10-30T17:02:16.243Z,97958.16
2022-10-30T17:04:51.306Z,97960.56
2022-10-30T17:07:26.682Z,97968.41
2022-10-30T17:09:56.968Z,97968.16
2022-10-30T17:12:26.947Z,97972.25
2022-10-30T17:14:57.448Z,97974.66
2022-10-30T17:17:32.915Z,97982.50
2022-10-30T17:20:13.136Z,97982.38
2022-10-30T17:22:43.111Z,97989.34
2022-10-30T17:25:30.141Z,97986.78
2022-10-30T17:27:58.787Z,97989.19
2022-10-30T17:30:40.244Z,97991.63
2022-10-30T17:33:42.920Z,97993.59
2022-10-30T17:36:13.279Z,98004.72
2022-10-30T17:38:43.008Z,98004.63
2022-10-30T17:41:16.845Z,97998.00
2022-10-30T17:43:53.497Z,98009.47
2022-10-30T17:46:21.846Z,98004.66
2022-10-30T17:48:50.746Z,98004.38
2022-10-30T17:51:19.944Z,98004.09
2022-10-30T17:53:50.316Z,98003.66
2022-10-30T17:56:23.102Z,98004.38
2022-10-30T17:58:51.596Z,98011.13
2022-10-30T18:01:22.716Z,98010.84
2022-10-30T18:03:51.785Z,98008.91
2022-10-30T18:06:22.650Z,98014.81
2022-10-30T18:08:53.286Z,98022.56
2022-10-30T18:11:25.153Z,98024.16
2022-10-30T18:13:53.993Z,98024.88
2022-10-30T18:16:22.377Z,98022.75
2022-10-30T18:18:51.028Z,98022.47
2022-10-30T18:21:22.213Z,98032.06
2022-10-30T18:23:53.453Z,98029.91
2022-10-30T18:26:25.288Z,98025.94
2022-10-30T18:28:53.902Z,98032.03
2022-10-30T18:31:25.055Z,98028.06
2022-10-30T18:33:53.398Z,98029.41
2022-10-30T18:36:24.039Z,98028.28
2022-10-30T18:38:54.586Z,98026.97
2022-10-30T18:41:28.244Z,98022.16
2022-10-30T18:43:56.589Z,98037.72
2022-10-30T18:46:25.491Z,98037.47
2022-10-30T18:48:53.743Z,98038.00
2022-10-30T18:51:26.204Z,98032.31
2022-10-30T18:53:57.129Z,98029.16
2022-10-30T18:56:27.713Z,98031.56
2022-10-30T18:59:00.522Z,98024.88
2022-10-30T19:01:33.212Z,98021.91
2022-10-30T19:04:03.800Z,98023.44
2022-10-30T19:06:34.438Z,98026.66
2022-10-30T19:09:05.195Z,98021.00
2022-10-30T19:11:33.617Z,98022.38
2022-10-30T19:14:01.941Z,98019.03
2022-10-30T19:16:30.357Z,98024.91
2022-10-30T19:18:58.615Z,98024.41
2022-10-30T19:21:28.092Z,98025.78
2022-10-30T19:23:57.093Z,98031.47
2022-10-30T19:26:26.758Z,98034.69
2022-10-30T19:28:55.056Z,98033.19
2022-10-30T19:31:23.273Z,98022.16
2022-10-30T19:33:54.592Z,98022.50
2022-10-30T19:36:31.885Z,98022.38
2022-10-30T19:39:05.738Z,98023.53
2022-10-30T19:41:38.851Z,98027.75
2022-10-30T19:44:07.424Z,98017.56
2022-10-30T19:46:35.961Z,98025.94
2022-10-30T19:49:17.110Z,98025.59
2022-10-30T19:51:45.388Z,98034.81
2022-10-30T19:54:13.698Z,98031.47
2022-10-30T19:56:44.083Z,98031.81
2022-10-30T19:59:14.944Z,98030.50
2022-10-30T20:01:44.539Z,98041.53
2022-10-30T20:04:13.530Z,98042.91
2022-10-30T20:06:41.805Z,98037.88
2022-10-30T20:09:12.079Z,98044.38
2022-10-30T20:11:40.343Z,98049.25
2022-10-30T20:14:09.965Z,98037.25
2022-10-30T20:16:38.217Z,98047.28
2022-10-30T20:19:28.255Z,98046.13
2022-10-30T20:21:56.776Z,98041.91
2022-10-30T20:24:25.550Z,98044.94
2022-10-30T20:26:56.822Z,98039.13
2022-10-30T20:29:26.650Z,98035.94
2022-10-30T20:31:54.914Z,98038.06
2022-10-30T20:34:23.153Z,98038.22
2022-10-30T20:36:51.425Z,98037.75
2022-10-30T20:39:19.707Z,98044.41
2022-10-30T20:41:48.073Z,98042.94
2022-10-30T20:44:16.322Z,98043.44
2022-10-30T20:46:46.274Z,98036.75
2022-10-30T20:49:18.241Z,98038.75
2022-10-30T20:51:47.633Z,98036.41
2022-10-30T20:54:16.153Z,98048.44
2022-10-30T20:56:44.396Z,98033.75
2022-10-30T20:59:12.707Z,98047.44
2022-10-30T21:01:41.126Z,98041.44
2022-10-30T21:04:10.887Z,98039.25
2022-10-30T21:06:39.140Z,98055.59
2022-10-30T21:09:07.444Z,98039.06
2022-10-30T21:11:35.798Z,98040.25
2022-10-30T21:14:04.083Z,98050.09
2022-10-30T21:16:32.300Z,98041.75
2022-10-30T21:19:00.516Z,98044.59
2022-10-30T21:21:30.162Z,98040.56
2022-10-30T21:23:58.440Z,98039.22
2022-10-30T21:26:26.666Z,98034.06
2022-10-30T21:29:05.798Z,98028.88
2022-10-30T21:31:34.225Z,98052.56
2022-10-30T21:34:02.525Z,98057.41
2022-10-30T21:36:32.127Z,98064.06
2022-10-30T21:39:00.524Z,98055.38
2022-10-30T21:41:29.012Z,98058.38
2022-10-30T21:43:59.109Z,98059.53
2022-10-30T21:46:30.091Z,98056.47
2022-10-30T21:49:03.272Z,98055.97
2022-10-30T21:51:33.198Z,98063.97
2022-10-30T21:54:01.480Z,98066.94
2022-10-30T21:56:31.367Z,98068.81
2022-10-30T21:59:04.566Z,98065.44
2022-10-30T22:01:35.742Z,98064.75
2022-10-30T22:04:06.565Z,98063.25
2022-10-30T22:06:40.560Z,98065.28
2022-10-30T22:09:08.970Z,98058.41
2022-10-30T22:11:37.434Z,98064.06
2022-10-30T22:14:06.700Z,98059.59
2022-10-30T22:16:37.209Z,98051.06
2022-10-30T22:19:06.827Z,98047.56
2022-10-30T22:21:36.418Z,98050.41
2022-10-30T22:24:05.892Z,98043.53
2022-10-30T22:26:34.188Z,98047.38
2022-10-30T22:29:02.606Z,98044.19
2022-10-30T22:31:31.963Z,98043.53
2022-10-30T22:34:01.762Z,98051.53
2022-10-30T22:36:31.922Z,98043.00
2022-10-30T22:39:03.942Z,98040.66
2022-10-30T22:41:37.701Z,98039.97
2022-10-30T22:44:08.914Z,98046.47
2022-10-30T22:46:37.912Z,98042.28
2022-10-30T22:49:07.320Z,98040.75
2022-10-30T22:51:38.027Z,98041.06
2022-10-30T22:54:11.197Z,98048.41
2022-10-30T22:56:40.776Z,98047.72
2022-10-30T22:59:13.005Z,98052.41
2022-10-30T23:01:42.427Z,98055.22
2022-10-30T23:04:14.040Z,98054.69
2022-10-30T23:06:42.669Z,98058.38
2022-10-30T23:09:18.880Z,98056.03
2022-10-30T23:11:47.147Z,98059.81
2022-10-30T23:14:16.344Z,98056.66
2022-10-30T23:16:44.593Z,98059.63
2022-10-30T23:19:13.034Z,98060.75
2022-10-30T23:21:41.292Z,98051.25
2022-10-30T23:24:11.067Z,98063.88
2022-10-30T23:26:39.296Z,98057.06
2022-10-30T23:29:07.470Z,98065.91
2022-10-30T23:31:39.004Z,98063.53
2022-10-30T23:34:10.150Z,98061.03
2022-10-30T23:36:39.039Z,98061.34
2022-10-30T23:39:11.902Z,98070.31
2022-10-30T23:41:40.251Z,98070.44
2022-10-30T23:44:12.749Z,98060.09
2022-10-30T23:46:41.476Z,98059.28
2022-10-30T23:49:09.905Z,98051.44
2022-10-30T23:51:38.203Z,98062.25
2022-10-30T23:54:06.736Z,98053.56
2022-10-30T23:56:36.406Z,98052.91
2022-10-30T23:59:04.866Z,98048.84
